Time;durP1;ratioP1;P1;durP2;ratioP2;P2;SDS_P1;SDS_P2;PMS_P1;PMS_P2;Temp;Humidity;BMP_temperature;BMP_pressure;BME280_temperature;BME280_humidity;BME280_pressure;Samples;Min_cycle;Max_cycle;Signal;HPM_P1;HPM_P2
2022/05/22 00:01:24;;;;;;;8.95;4.10;;;9.70;99.90;;;;;;5061799;28;20086;-76
2022/05/22 00:03:50;;;;;;;7.20;3.83;;;9.60;99.90;;;;;;5071678;28;20588;-76
2022/05/22 00:06:16;;;;;;;4.72;3.60;;;9.60;99.90;;;;;;5072302;28;20501;-76
2022/05/22 00:08:41;;;;;;;5.80;3.38;;;9.60;99.90;;;;;;5058964;28;20032;-76
2022/05/22 00:11:07;;;;;;;7.32;3.75;;;9.50;99.90;;;;;;5069623;28;20043;-76
2022/05/22 00:13:33;;;;;;;7.53;4.10;;;9.50;99.90;;;;;;5072359;28;20092;-76
2022/05/22 00:18:42;;;;;;;5.63;3.90;;;9.50;99.90;;;;;;5071749;28;20079;-76
2022/05/22 00:21:08;;;;;;;6.60;4.45;;;9.40;99.90;;;;;;5075944;28;20078;-76
2022/05/22 00:23:34;;;;;;;7.00;4.97;;;9.40;99.90;;;;;;5075601;28;20036;-76
2022/05/22 00:25:59;;;;;;;7.47;4.30;;;9.40;99.90;;;;;;5093157;28;20040;-76
2022/05/22 00:28:25;;;;;;;6.65;4.65;;;9.40;99.90;;;;;;5093458;28;20036;-76
2022/05/22 00:30:51;;;;;;;8.02;4.78;;;9.40;99.90;;;;;;5093577;28;20537;-76
2022/05/22 00:33:16;;;;;;;5.50;4.28;;;9.40;99.90;;;;;;5086265;28;20073;-76
2022/05/22 00:35:42;;;;;;;7.38;4.68;;;9.30;99.90;;;;;;5076426;28;20481;-76
2022/05/22 00:38:07;;;;;;;5.57;4.18;;;9.30;99.90;;;;;;5064072;28;20048;-76
2022/05/22 00:40:34;;;;;;;6.82;4.43;;;9.30;99.90;;;;;;5056495;28;20059;-76
2022/05/22 00:43:01;;;;;;;7.05;4.25;;;9.30;99.90;;;;;;5074630;28;20036;-76
2022/05/22 00:45:27;;;;;;;6.72;4.50;;;9.30;99.90;;;;;;5076421;28;20481;-76
2022/05/22 00:47:53;;;;;;;5.28;4.18;;;9.20;99.90;;;;;;5075598;28;20051;-76
2022/05/22 00:50:20;;;;;;;5.03;3.58;;;9.20;99.90;;;;;;5076411;28;20044;-76
2022/05/22 00:52:53;;;;;;;6.60;4.20;;;9.10;99.90;;;;;;5076107;28;20048;-76
2022/05/22 00:55:22;;;;;;;5.38;3.53;;;9.10;99.90;;;;;;5081475;28;20112;-76
2022/05/22 00:57:50;;;;;;;8.15;4.00;;;9.10;99.90;;;;;;5086648;28;20036;-76
2022/05/22 01:00:22;;;;;;;5.43;3.53;;;9.10;99.90;;;;;;5093521;28;20106;-76
2022/05/22 01:05:35;;;;;;;2.70;2.50;;;9.00;99.90;;;;;;5092481;28;20101;-76
2022/05/22 01:08:02;;;;;;;6.72;4.07;;;9.00;99.90;;;;;;5075341;28;20040;-76
2022/05/22 01:10:37;;;;;;;4.68;3.85;;;9.00;99.90;;;;;;5073871;28;20094;-76
2022/05/22 01:13:03;;;;;;;7.18;3.95;;;8.90;99.90;;;;;;5061166;28;20088;-76
2022/05/22 01:15:29;;;;;;;5.35;3.45;;;9.00;99.90;;;;;;5056153;28;20044;-76
2022/05/22 01:17:55;;;;;;;4.45;3.55;;;8.90;99.90;;;;;;5071603;28;20385;-76
2022/05/22 01:20:20;;;;;;;4.68;3.55;;;8.90;99.90;;;;;;5063558;28;20047;-76
2022/05/22 01:22:46;;;;;;;4.10;3.22;;;8.90;99.90;;;;;;5058325;28;20059;-76
2022/05/22 01:25:11;;;;;;;3.42;2.60;;;8.90;99.90;;;;;;5074616;28;20466;-76
2022/05/22 01:27:39;;;;;;;3.35;3.03;;;8.90;99.90;;;;;;5071959;28;20040;-77
2022/05/22 01:30:06;;;;;;;3.33;3.03;;;8.80;99.90;;;;;;5070055;28;20036;-77
2022/05/22 01:32:34;;;;;;;4.85;3.05;;;8.80;99.90;;;;;;5071147;28;20085;-77
2022/05/22 01:34:59;;;;;;;4.68;2.95;;;8.80;99.90;;;;;;5062106;28;20056;-77
2022/05/22 01:37:25;;;;;;;4.93;3.30;;;8.80;99.90;;;;;;5067969;28;20040;-76
2022/05/22 01:39:52;;;;;;;4.85;3.05;;;8.70;99.90;;;;;;5075497;28;20048;-77
2022/05/22 01:42:17;;;;;;;4.05;3.20;;;8.70;99.90;;;;;;5075502;28;20393;-77
2022/05/22 01:44:43;;;;;;;4.10;3.00;;;8.70;99.90;;;;;;5051775;28;20045;-77
2022/05/22 01:47:09;;;;;;;4.25;3.47;;;8.70;99.90;;;;;;5057196;28;20040;-77
2022/05/22 01:49:34;;;;;;;4.45;3.65;;;8.60;99.90;;;;;;5074459;28;20039;-77
2022/05/22 01:52:00;;;;;;;4.28;3.50;;;8.60;99.90;;;;;;5074532;28;20040;-77
2022/05/22 01:54:26;;;;;;;3.58;3.28;;;8.60;99.90;;;;;;5067081;28;20041;-77
2022/05/22 01:56:51;;;;;;;4.82;4.10;;;8.60;99.90;;;;;;5062126;28;20032;-76
2022/05/22 01:59:17;;;;;;;3.95;3.40;;;8.50;99.90;;;;;;5056124;28;20094;-76
2022/05/22 02:01:42;;;;;;;5.00;3.28;;;8.50;99.90;;;;;;5083100;28;20036;-77
2022/05/22 02:04:08;;;;;;;6.65;3.20;;;8.50;99.90;;;;;;5060018;28;20140;-77
2022/05/22 02:06:34;;;;;;;3.85;3.30;;;8.50;99.90;;;;;;5056180;28;20486;-76
2022/05/22 02:09:00;;;;;;;3.70;2.83;;;8.50;99.90;;;;;;5069857;28;20047;-76
2022/05/22 02:11:25;;;;;;;4.72;2.72;;;8.40;99.90;;;;;;5056434;28;20107;-76
2022/05/22 02:13:51;;;;;;;2.67;2.22;;;8.40;99.90;;;;;;5073394;28;20048;-77
2022/05/22 02:16:17;;;;;;;2.75;2.22;;;8.30;99.90;;;;;;5075721;28;20043;-77
2022/05/22 02:18:43;;;;;;;3.83;2.40;;;8.30;99.90;;;;;;5071585;28;20126;-77
2022/05/22 02:21:09;;;;;;;5.25;3.10;;;8.30;99.90;;;;;;5074033;28;20093;-76
2022/05/22 02:23:36;;;;;;;4.93;3.10;;;8.30;99.90;;;;;;5056392;28;20032;-76
2022/05/22 02:26:03;;;;;;;4.95;3.00;;;8.30;99.90;;;;;;5074593;28;20036;-76
2022/05/22 02:28:28;;;;;;;3.42;2.63;;;8.30;99.90;;;;;;5070632;28;20033;-76
2022/05/22 02:30:58;;;;;;;5.95;3.00;;;8.30;99.90;;;;;;5045508;28;20044;-77
2022/05/22 02:33:24;;;;;;;6.25;3.10;;;8.20;99.90;;;;;;5065501;28;20048;-76
2022/05/22 02:35:51;;;;;;;4.32;3.15;;;8.20;99.90;;;;;;5065694;28;20036;-77
2022/05/22 02:38:17;;;;;;;5.40;3.30;;;8.20;99.90;;;;;;5067812;28;20088;-76
2022/05/22 02:40:44;;;;;;;5.93;3.63;;;8.20;99.90;;;;;;5073592;28;20052;-76
2022/05/22 02:43:10;;;;;;;5.97;3.70;;;8.20;99.90;;;;;;5056999;28;20028;-77
2022/05/22 02:45:37;;;;;;;4.60;2.88;;;8.10;99.90;;;;;;5057807;28;20494;-77
2022/05/22 02:48:05;;;;;;;5.75;2.67;;;8.10;99.90;;;;;;5066078;28;20048;-77
2022/05/22 02:50:32;;;;;;;4.85;2.65;;;8.10;99.90;;;;;;5071012;28;20036;-77
2022/05/22 02:52:58;;;;;;;3.30;2.60;;;8.10;99.90;;;;;;5064619;28;20032;-76
2022/05/22 02:55:24;;;;;;;5.03;2.70;;;8.10;99.90;;;;;;5059368;28;20608;-76
2022/05/22 02:57:49;;;;;;;5.93;3.15;;;8.10;99.90;;;;;;5055521;28;20047;-77
2022/05/22 03:00:33;;;;;;;4.55;2.58;;;8.00;99.90;;;;;;5090242;28;20032;-77
2022/05/22 03:02:59;;;;;;;2.53;2.03;;;7.90;99.90;;;;;;5071607;28;20039;-77
2022/05/22 03:05:26;;;;;;;2.97;1.83;;;7.80;99.90;;;;;;5056646;28;20051;-76
2022/05/22 03:07:52;;;;;;;2.70;2.33;;;7.80;99.90;;;;;;5070361;28;20075;-76
2022/05/22 03:10:18;;;;;;;3.45;2.33;;;7.80;99.90;;;;;;5055892;28;20028;-76
2022/05/22 03:12:44;;;;;;;2.05;1.85;;;7.80;99.90;;;;;;5072085;28;20654;-76
2022/05/22 03:15:12;;;;;;;3.28;2.00;;;7.80;99.90;;;;;;5071721;28;20047;-77
2022/05/22 03:17:38;;;;;;;1.73;1.63;;;7.80;99.90;;;;;;5072853;28;20048;-76
2022/05/22 03:20:04;;;;;;;2.28;1.58;;;7.80;99.90;;;;;;5058803;28;20059;-77
2022/05/22 03:22:31;;;;;;;1.90;1.70;;;7.80;99.90;;;;;;5065391;28;20044;-77
2022/05/22 03:24:57;;;;;;;3.03;2.10;;;7.80;99.90;;;;;;5064032;28;20044;-76
2022/05/22 03:27:22;;;;;;;1.95;1.73;;;7.80;99.90;;;;;;5070087;28;20067;-76
2022/05/22 03:29:49;;;;;;;2.63;2.13;;;7.80;99.90;;;;;;5065878;28;20116;-76
2022/05/22 03:32:15;;;;;;;2.22;1.88;;;7.80;99.90;;;;;;5072010;28;20036;-76
2022/05/22 03:34:41;;;;;;;3.28;2.10;;;7.80;99.90;;;;;;5071954;28;20169;-76
2022/05/22 03:37:07;;;;;;;4.40;2.22;;;7.70;99.90;;;;;;5072415;28;20043;-77
2022/05/22 03:39:32;;;;;;;4.68;2.50;;;7.80;99.90;;;;;;5057564;28;20417;-77
2022/05/22 03:41:58;;;;;;;4.32;2.33;;;7.80;99.90;;;;;;5056620;28;20087;-75
2022/05/22 03:44:25;;;;;;;4.40;2.90;;;7.80;99.90;;;;;;5062698;28;20041;-74
2022/05/22 03:46:51;;;;;;;3.35;2.67;;;7.90;99.90;;;;;;5046970;28;20063;-77
2022/05/22 03:49:17;;;;;;;3.38;3.08;;;7.90;99.90;;;;;;5042080;28;20047;-77
2022/05/22 03:51:42;;;;;;;3.47;3.17;;;8.00;99.90;;;;;;5069010;28;20725;-77
2022/05/22 03:54:09;;;;;;;3.85;3.30;;;8.00;99.90;;;;;;5064920;28;20040;-76
2022/05/22 03:56:35;;;;;;;4.80;3.80;;;8.00;99.90;;;;;;5052674;28;20128;-77
2022/05/22 03:59:02;;;;;;;4.28;3.88;;;8.10;99.90;;;;;;5032643;28;20091;-77
2022/05/22 04:01:28;;;;;;;4.03;3.67;;;8.20;99.90;;;;;;5051173;28;20049;-77
2022/05/22 04:03:54;;;;;;;4.60;3.22;;;8.20;99.90;;;;;;5067813;28;20375;-76
2022/05/22 04:06:19;;;;;;;4.72;3.50;;;8.30;99.90;;;;;;5034156;28;20086;-77
2022/05/22 04:08:45;;;;;;;3.40;3.08;;;8.30;99.90;;;;;;5069928;28;20040;-76
2022/05/22 04:11:17;;;;;;;5.88;3.40;;;8.40;99.90;;;;;;5069785;28;20043;-76
2022/05/22 04:13:44;;;;;;;7.10;3.13;;;8.40;99.90;;;;;;5058433;28;20093;-77
2022/05/22 04:16:09;;;;;;;4.97;3.25;;;8.40;99.90;;;;;;5069733;28;20055;-76
2022/05/22 04:18:35;;;;;;;6.78;3.55;;;8.50;99.90;;;;;;5052139;28;20485;-76
2022/05/22 04:21:01;;;;;;;4.80;4.30;;;8.50;99.90;;;;;;5069653;28;20043;-76
2022/05/22 04:26:11;;;;;;;5.03;4.00;;;8.50;99.90;;;;;;5068994;28;20482;-76
2022/05/22 04:28:38;;;;;;;5.75;4.28;;;8.60;99.90;;;;;;5050755;28;20028;-76
2022/05/22 04:31:03;;;;;;;5.35;3.83;;;8.70;99.90;;;;;;5069496;28;20124;-76
2022/05/22 04:33:32;;;;;;;5.60;3.80;;;8.80;99.90;;;;;;5069753;28;20449;-77
2022/05/22 04:35:59;;;;;;;6.07;4.22;;;8.90;99.90;;;;;;5051566;28;20041;-76
2022/05/22 04:38:25;;;;;;;6.72;4.55;;;9.00;99.90;;;;;;5062400;28;20048;-76
2022/05/22 04:40:59;;;;;;;7.30;4.85;;;9.10;99.90;;;;;;5069331;28;20647;-77
2022/05/22 04:43:26;;;;;;;7.03;4.78;;;9.20;99.90;;;;;;5065197;28;20032;-76
2022/05/22 04:45:52;;;;;;;8.90;4.72;;;9.40;99.90;;;;;;5051993;28;20123;-76
2022/05/22 04:48:18;;;;;;;7.05;5.70;;;9.50;99.90;;;;;;5064911;28;20037;-76
2022/05/22 04:50:46;;;;;;;8.98;5.22;;;9.50;99.90;;;;;;5049319;28;20048;-76
2022/05/22 04:53:12;;;;;;;9.48;5.25;;;9.50;99.90;;;;;;5061606;28;20067;-77
2022/05/22 04:55:38;;;;;;;8.35;5.10;;;9.50;99.90;;;;;;5060150;28;20033;-76
2022/05/22 04:58:04;;;;;;;9.02;5.60;;;9.60;99.90;;;;;;5063101;28;20539;-76
2022/05/22 05:00:30;;;;;;;8.85;5.78;;;9.70;99.90;;;;;;5064082;28;20490;-76
2022/05/22 05:02:55;;;;;;;7.47;5.25;;;9.80;99.90;;;;;;5061936;28;20126;-76
2022/05/22 05:05:21;;;;;;;9.48;5.20;;;9.80;99.90;;;;;;5052324;28;20481;-76
2022/05/22 05:07:47;;;;;;;9.38;5.40;;;10.00;99.90;;;;;;5071583;28;20029;-76
2022/05/22 05:10:12;;;;;;;7.22;4.80;;;10.10;99.90;;;;;;5053630;28;20045;-77
2022/05/22 05:12:40;;;;;;;11.68;6.28;;;10.20;99.90;;;;;;5053766;28;20041;-76
2022/05/22 05:15:07;;;;;;;9.65;5.50;;;10.30;99.90;;;;;;5072866;28;20109;-76
2022/05/22 05:17:33;;;;;;;9.38;5.95;;;10.30;99.90;;;;;;5047729;28;20505;-76
2022/05/22 05:19:59;;;;;;;8.82;6.15;;;10.40;99.90;;;;;;5067703;28;20040;-76
2022/05/22 05:22:25;;;;;;;8.75;6.18;;;10.50;99.90;;;;;;5072176;28;20140;-76
2022/05/22 05:24:51;;;;;;;10.90;7.10;;;10.60;99.90;;;;;;5072016;28;20048;-76
2022/05/22 05:27:17;;;;;;;12.15;6.90;;;10.60;99.90;;;;;;5052800;28;20044;-77
2022/05/22 05:29:42;;;;;;;8.77;6.65;;;10.70;99.90;;;;;;5052479;28;20071;-76
2022/05/22 05:32:08;;;;;;;9.48;6.38;;;10.80;99.90;;;;;;5051994;28;20098;-76
2022/05/22 05:34:34;;;;;;;11.38;6.90;;;10.90;99.90;;;;;;5054432;28;20605;-76
2022/05/22 05:36:59;;;;;;;10.07;6.72;;;11.00;99.90;;;;;;5068198;28;20040;-77
2022/05/22 05:39:27;;;;;;;13.27;6.95;;;11.20;99.90;;;;;;5066757;28;20045;-76
2022/05/22 05:41:54;;;;;;;12.45;7.03;;;11.30;99.90;;;;;;5054830;28;20049;-77
2022/05/22 05:44:20;;;;;;;13.25;7.57;;;11.40;99.90;;;;;;5034891;28;20052;-76
2022/05/22 05:46:46;;;;;;;13.48;7.25;;;11.60;99.90;;;;;;5036989;28;20402;-76
2022/05/22 05:49:13;;;;;;;11.38;6.72;;;11.80;99.90;;;;;;5058251;28;20037;-77
2022/05/22 05:51:38;;;;;;;10.05;6.40;;;12.60;99.90;;;;;;5068807;28;20042;-77
2022/05/22 05:54:04;;;;;;;12.70;7.00;;;14.30;99.90;;;;;;5069971;28;20068;-75
2022/05/22 05:56:30;;;;;;;13.05;6.30;;;15.90;99.90;;;;;;5070363;28;20040;-74
2022/05/22 05:58:57;;;;;;;14.65;6.65;;;17.40;99.90;;;;;;5044455;28;20045;-74
2022/05/22 06:01:24;;;;;;;9.70;6.03;;;18.60;99.90;;;;;;5053431;28;20194;-75
2022/05/22 06:03:51;;;;;;;10.98;5.40;;;19.80;99.90;;;;;;5065795;28;20166;-77
2022/05/22 06:06:17;;;;;;;10.30;5.13;;;20.80;99.90;;;;;;5070397;28;20048;-76
2022/05/22 06:08:43;;;;;;;16.42;6.07;;;21.50;99.90;;;;;;5054225;28;20040;-76
2022/05/22 06:11:09;;;;;;;14.35;5.93;;;22.10;99.20;;;;;;5036072;28;20087;-76
2022/05/22 06:13:35;;;;;;;11.85;5.32;;;22.80;98.50;;;;;;5069647;28;20036;-77
2022/05/22 06:16:06;;;;;;;9.90;5.50;;;23.50;97.50;;;;;;5058611;28;20070;-77
2022/05/22 06:18:32;;;;;;;10.93;5.53;;;24.20;95.60;;;;;;5066092;28;20124;-77
2022/05/22 06:20:57;;;;;;;12.85;5.15;;;24.80;93.90;;;;;;5068024;28;20127;-77
2022/05/22 06:23:23;;;;;;;9.98;4.40;;;25.20;92.70;;;;;;5071134;28;20035;-77
2022/05/22 06:25:49;;;;;;;12.60;4.85;;;25.60;90.50;;;;;;5067478;28;20459;-77
2022/05/22 06:28:16;;;;;;;8.48;4.40;;;25.80;87.70;;;;;;5053974;28;20045;-77
2022/05/22 06:30:42;;;;;;;11.40;5.00;;;25.80;87.20;;;;;;5065425;28;20041;-77
2022/05/22 06:33:12;;;;;;;10.32;4.55;;;25.90;86.30;;;;;;5067225;28;20041;-77
2022/05/22 06:35:39;;;;;;;10.20;4.30;;;25.80;81.50;;;;;;5051193;28;20063;-77
2022/05/22 06:38:06;;;;;;;12.27;5.00;;;26.10;82.20;;;;;;5062641;28;20056;-77
2022/05/22 06:40:32;;;;;;;7.95;4.00;;;26.20;80.90;;;;;;5069372;28;20062;-77
2022/05/22 06:43:01;;;;;;;9.55;3.80;;;26.60;80.10;;;;;;5052345;28;20044;-77
2022/05/22 06:45:27;;;;;;;11.10;4.03;;;27.00;80.30;;;;;;5063512;28;20467;-77
2022/05/22 06:47:52;;;;;;;10.98;3.85;;;27.00;76.60;;;;;;5049488;28;20098;-77
2022/05/22 06:50:22;;;;;;;7.18;3.28;;;27.30;75.90;;;;;;5069354;28;20067;-77
2022/05/22 06:52:47;;;;;;;11.25;4.30;;;27.20;72.00;;;;;;5068680;28;20094;-78
2022/05/22 06:55:13;;;;;;;9.48;3.53;;;27.30;67.60;;;;;;5065723;28;20477;-77
2022/05/22 06:57:39;;;;;;;8.65;3.65;;;27.70;71.80;;;;;;5044831;28;20053;-77
2022/05/22 07:00:10;;;;;;;7.95;3.40;;;27.90;68.70;;;;;;5065232;28;20033;-77
2022/05/22 07:02:36;;;;;;;7.20;3.70;;;27.90;68.70;;;;;;5046745;28;20087;-77
2022/05/22 07:05:03;;;;;;;8.13;3.50;;;28.00;68.30;;;;;;5070412;28;20045;-77
2022/05/22 07:07:29;;;;;;;6.75;3.45;;;28.30;68.20;;;;;;5043256;28;20036;-77
2022/05/22 07:09:54;;;;;;;10.07;3.35;;;28.30;65.40;;;;;;5047037;28;20037;-77
2022/05/22 07:12:20;;;;;;;8.27;3.65;;;28.20;65.20;;;;;;5062367;28;20040;-77
2022/05/22 07:14:48;;;;;;;8.38;3.33;;;28.40;65.90;;;;;;5052891;28;20472;-77
2022/05/22 07:17:15;;;;;;;7.68;3.30;;;28.20;65.70;;;;;;5063715;28;20097;-77
2022/05/22 07:19:42;;;;;;;9.80;3.38;;;28.30;64.50;;;;;;5063431;28;20067;-77
2022/05/22 07:22:08;;;;;;;7.32;2.88;;;28.40;64.40;;;;;;5059442;28;20044;-77
2022/05/22 07:24:34;;;;;;;12.90;3.95;;;28.40;61.70;;;;;;5066084;28;20047;-77
2022/05/22 07:27:00;;;;;;;9.40;3.00;;;28.60;63.10;;;;;;5045876;28;20045;-76
2022/05/22 07:29:25;;;;;;;8.30;3.13;;;28.60;63.30;;;;;;5051508;28;20144;-77
2022/05/22 07:31:51;;;;;;;7.70;2.70;;;28.80;62.70;;;;;;5056812;28;20524;-77
2022/05/22 07:34:17;;;;;;;7.95;2.67;;;28.70;60.60;;;;;;5059083;28;20047;-76
2022/05/22 07:36:43;;;;;;;8.98;3.22;;;28.10;59.50;;;;;;5046609;28;20513;-76
2022/05/22 07:39:08;;;;;;;6.07;2.33;;;28.20;61.80;;;;;;5041951;28;20048;-76
2022/05/22 07:41:35;;;;;;;6.22;2.78;;;28.60;62.10;;;;;;5036356;28;20104;-76
2022/05/22 07:44:00;;;;;;;9.50;2.90;;;28.60;59.90;;;;;;5017647;28;20174;-76
2022/05/22 07:46:26;;;;;;;8.48;2.88;;;28.50;59.10;;;;;;5049961;28;20128;-76
2022/05/22 07:48:52;;;;;;;8.57;3.08;;;28.50;60.30;;;;;;5049860;28;20080;-76
2022/05/22 07:51:18;;;;;;;7.40;2.88;;;28.60;59.90;;;;;;5049827;28;20052;-75
2022/05/22 07:53:44;;;;;;;7.55;2.65;;;28.70;59.40;;;;;;5021005;28;20049;-75
2022/05/22 07:56:13;;;;;;;9.35;3.30;;;28.50;59.00;;;;;;5039816;28;20501;-76
2022/05/22 07:58:39;;;;;;;9.80;3.35;;;28.30;58.70;;;;;;5039881;28;20115;-76
2022/05/22 08:01:05;;;;;;;5.20;1.98;;;28.00;59.70;;;;;;5022823;28;20060;-74
2022/05/22 08:03:32;;;;;;;7.40;2.60;;;27.60;60.00;;;;;;5043861;28;20371;-74
2022/05/22 08:05:58;;;;;;;6.03;2.60;;;26.90;60.00;;;;;;5045319;28;20383;-74
2022/05/22 08:08:24;;;;;;;7.18;2.45;;;26.00;60.60;;;;;;5046338;28;20135;-74
2022/05/22 08:10:50;;;;;;;8.43;3.00;;;25.30;62.30;;;;;;5017856;28;20084;-73
2022/05/22 08:13:18;;;;;;;8.00;2.90;;;24.60;63.20;;;;;;5023345;28;20055;-73
2022/05/22 08:15:44;;;;;;;5.80;2.22;;;23.80;64.50;;;;;;5041992;28;20052;-73
2022/05/22 08:18:10;;;;;;;7.47;3.00;;;23.40;66.10;;;;;;5017275;28;20038;-73
2022/05/22 08:20:38;;;;;;;9.20;3.17;;;23.10;67.20;;;;;;5030726;28;20056;-73
2022/05/22 08:23:08;;;;;;;7.55;3.05;;;22.80;68.50;;;;;;5028348;28;20155;-73
2022/05/22 08:25:34;;;;;;;7.00;2.30;;;22.60;70.30;;;;;;5037427;28;20117;-73
2022/05/22 08:27:59;;;;;;;6.55;2.80;;;22.60;71.60;;;;;;5048859;28;20616;-74
2022/05/22 08:30:27;;;;;;;7.15;2.70;;;22.50;69.60;;;;;;5048484;28;20099;-73
2022/05/22 08:32:53;;;;;;;8.60;2.63;;;22.00;70.70;;;;;;5046880;28;20105;-73
2022/05/22 08:35:28;;;;;;;8.05;2.47;;;22.20;70.00;;;;;;5037501;28;20458;-74
2022/05/22 08:37:54;;;;;;;6.28;2.55;;;21.90;71.00;;;;;;5021757;28;20060;-74
2022/05/22 08:40:22;;;;;;;6.30;2.42;;;21.20;70.70;;;;;;5045262;28;20045;-73
2022/05/22 08:42:59;;;;;;;8.93;2.58;;;20.60;70.90;;;;;;5051687;28;20048;-73
2022/05/22 08:45:30;;;;;;;5.05;1.60;;;20.50;71.10;;;;;;5028808;28;20037;-73
2022/05/22 08:48:15;;;;;;;8.07;2.15;;;20.70;72.50;;;;;;5041968;28;20052;-74
2022/05/22 08:50:44;;;;;;;6.43;1.70;;;20.70;72.60;;;;;;5051444;28;20048;-74
2022/05/22 08:53:30;;;;;;;3.20;1.10;;;20.50;73.30;;;;;;5049545;28;20040;-74
2022/05/22 08:59:00;;;;;;;5.72;1.70;;;20.30;73.70;;;;;;5048426;28;20049;-74
2022/05/22 09:01:35;;;;;;;4.70;1.73;;;20.60;73.50;;;;;;5047802;28;20030;-74
2022/05/22 09:04:38;;;;;;;6.10;1.60;;;20.80;73.10;;;;;;5052541;28;20045;-74
2022/05/22 09:07:14;;;;;;;6.57;1.90;;;20.90;72.80;;;;;;5043013;28;20048;-74
2022/05/22 09:09:41;;;;;;;5.82;1.92;;;20.80;73.20;;;;;;5052557;28;20067;-74
2022/05/22 09:12:26;;;;;;;7.28;1.83;;;20.40;71.20;;;;;;5050562;28;20040;-74
2022/05/22 09:15:17;;;;;;;6.32;1.90;;;20.40;73.10;;;;;;5052377;28;20037;-74
2022/05/22 09:18:10;;;;;;;7.70;2.10;;;20.20;75.40;;;;;;5035860;28;20045;-74
2022/05/22 09:20:55;;;;;;;4.78;1.83;;;19.90;76.40;;;;;;5018247;28;20045;-74
2022/05/22 09:24:02;;;;;;;5.22;1.52;;;20.10;75.40;;;;;;5051425;28;20055;-74
2022/05/22 09:26:42;;;;;;;10.02;1.95;;;20.40;76.80;;;;;;5027369;28;20056;-73
2022/05/22 09:30:02;;;;;;;5.47;1.60;;;20.60;75.70;;;;;;5046718;28;20041;-74
2022/05/22 09:32:43;;;;;;;5.03;1.77;;;20.50;74.00;;;;;;4968603;28;20405;-74
2022/05/22 09:35:29;;;;;;;4.03;1.42;;;21.00;75.10;;;;;;5040599;28;20053;-74
2022/05/22 09:38:06;;;;;;;6.32;1.75;;;21.20;71.40;;;;;;5050855;28;20488;-73
2022/05/22 09:41:15;;;;;;;2.80;1.20;;;21.30;75.00;;;;;;5071988;28;20098;-74
2022/05/22 09:44:18;;;;;;;4.95;1.50;;;21.60;74.00;;;;;;5069978;28;20029;-74
2022/05/22 09:47:18;;;;;;;6.32;1.77;;;21.70;73.40;;;;;;5050424;28;20036;-73
2022/05/22 09:50:15;;;;;;;5.93;1.35;;;21.80;72.50;;;;;;5063119;28;20367;-74
2022/05/22 09:52:44;;;;;;;4.25;1.60;;;21.30;73.40;;;;;;5054017;28;20051;-74
2022/05/22 09:55:22;;;;;;;7.50;1.88;;;21.30;74.80;;;;;;5064290;28;20036;-74
2022/05/22 09:58:15;;;;;;;7.47;1.85;;;21.20;74.80;;;;;;5059653;28;20052;-74
2022/05/22 10:01:04;;;;;;;6.18;1.80;;;21.30;75.40;;;;;;5069668;28;20048;-74
2022/05/22 10:03:41;;;;;;;6.03;1.80;;;21.60;74.40;;;;;;5052610;28;20024;-75
2022/05/22 10:06:25;;;;;;;5.35;1.55;;;21.50;74.60;;;;;;5045034;28;20064;-75
2022/05/22 10:09:10;;;;;;;7.00;1.45;;;21.20;74.10;;;;;;5070268;28;20040;-74
2022/05/22 10:11:45;;;;;;;4.68;1.65;;;21.10;74.10;;;;;;5054068;28;20469;-74
2022/05/22 10:14:31;;;;;;;5.32;1.77;;;21.20;74.30;;;;;;5068375;28;20076;-74
2022/05/22 10:17:23;;;;;;;3.33;1.50;;;21.60;73.20;;;;;;5053356;28;20140;-74
2022/05/22 10:20:07;;;;;;;5.90;1.30;;;21.90;72.50;;;;;;5068673;28;20424;-74
2022/05/22 10:23:27;;;;;;;2.97;0.93;;;22.10;72.00;;;;;;5066239;28;20043;-74
2022/05/22 10:26:26;;;;;;;5.95;1.48;;;22.40;67.10;;;;;;4962292;28;20572;-74
2022/05/22 10:29:10;;;;;;;4.70;1.33;;;21.70;69.60;;;;;;5063107;28;20044;-74
2022/05/22 10:31:50;;;;;;;5.80;1.75;;;21.70;70.10;;;;;;5054506;28;20370;-75
2022/05/22 10:34:34;;;;;;;6.22;1.50;;;20.90;69.20;;;;;;5047310;28;20128;-74
2022/05/22 10:37:09;;;;;;;4.70;1.58;;;20.90;72.10;;;;;;5045279;28;20049;-74
2022/05/22 10:39:34;;;;;;;8.57;1.50;;;20.60;73.40;;;;;;5048145;28;20060;-73
2022/05/22 10:44:51;;;;;;;4.13;1.45;;;20.80;76.40;;;;;;5042647;28;20056;-74
2022/05/22 10:47:32;;;;;;;4.78;1.60;;;21.30;75.30;;;;;;5048926;28;20045;-74
2022/05/22 10:50:00;;;;;;;5.68;1.30;;;21.30;74.80;;;;;;5050000;28;20037;-74
2022/05/22 10:52:37;;;;;;;4.10;1.20;;;21.40;75.60;;;;;;5054555;22;20041;-76
2022/05/22 10:55:14;;;;;;;5.53;1.50;;;21.20;73.70;;;;;;5071551;28;20065;-75
2022/05/22 10:57:40;;;;;;;5.15;1.70;;;20.80;74.60;;;;;;5068416;28;20408;-76
2022/05/22 11:00:16;;;;;;;5.05;1.52;;;20.70;74.50;;;;;;5072732;28;20040;-76
2022/05/22 11:02:42;;;;;;;4.78;1.48;;;21.00;75.70;;;;;;5066644;28;20399;-77
2022/05/22 11:05:18;;;;;;;5.85;2.13;;;21.10;75.70;;;;;;5069114;28;20044;-76
2022/05/22 11:07:51;;;;;;;5.60;1.20;;;21.30;74.00;;;;;;5070571;28;20032;-76
2022/05/22 11:10:25;;;;;;;5.63;1.60;;;21.30;76.10;;;;;;5070039;28;20044;-76
2022/05/22 11:13:05;;;;;;;7.18;1.92;;;21.60;74.60;;;;;;5069052;28;20066;-76
2022/05/22 11:15:40;;;;;;;3.67;1.73;;;21.40;71.90;;;;;;5066324;28;20081;-75
2022/05/22 11:18:07;;;;;;;3.83;1.15;;;21.70;74.00;;;;;;5049716;28;20040;-76
2022/05/22 11:20:33;;;;;;;6.93;1.65;;;21.90;74.10;;;;;;5055928;28;20032;-76
2022/05/22 11:23:17;;;;;;;7.00;1.63;;;22.20;73.70;;;;;;5071149;28;20071;-76
2022/05/22 11:25:55;;;;;;;4.80;1.52;;;22.40;72.70;;;;;;5070332;28;20036;-75
2022/05/22 11:28:43;;;;;;;3.97;1.27;;;22.20;71.10;;;;;;5061837;28;20051;-74
2022/05/22 11:31:38;;;;;;;5.15;1.52;;;22.80;72.20;;;;;;5075533;28;20572;-75
2022/05/22 11:34:21;;;;;;;3.13;1.20;;;23.10;72.90;;;;;;5056771;28;20122;-74
2022/05/22 11:37:21;;;;;;;2.70;0.95;;;23.00;72.80;;;;;;5069379;28;20114;-75
2022/05/22 11:40:08;;;;;;;3.10;1.35;;;23.20;72.30;;;;;;5069797;28;20097;-75
2022/05/22 11:42:39;;;;;;;4.43;1.40;;;23.20;70.90;;;;;;5078821;28;20052;-75
2022/05/22 11:45:32;;;;;;;6.60;1.70;;;22.90;69.80;;;;;;5066378;28;20123;-75
2022/05/22 11:48:19;;;;;;;3.17;1.30;;;22.70;68.90;;;;;;5069505;28;20044;-74
2022/05/22 11:51:14;;;;;;;3.95;1.45;;;22.60;70.40;;;;;;5069520;28;20120;-75
2022/05/22 11:54:02;;;;;;;5.88;1.65;;;21.70;67.10;;;;;;5062430;28;20052;-75
2022/05/22 11:56:38;;;;;;;5.43;1.52;;;21.40;69.60;;;;;;5075561;28;20142;-75
2022/05/22 11:59:37;;;;;;;4.22;1.42;;;21.70;71.80;;;;;;5072288;28;20040;-75
2022/05/22 12:02:38;;;;;;;3.58;1.30;;;21.80;68.90;;;;;;5071569;28;20051;-75
2022/05/22 12:05:31;;;;;;;6.28;1.48;;;21.80;70.50;;;;;;5049500;28;20231;-75
2022/05/22 12:08:05;;;;;;;5.72;1.40;;;21.20;69.40;;;;;;5064454;28;20032;-75
2022/05/22 12:10:34;;;;;;;4.82;1.58;;;21.30;73.20;;;;;;5063525;28;20050;-75
2022/05/22 12:13:09;;;;;;;4.60;1.23;;;21.40;72.10;;;;;;5058556;28;20051;-75
2022/05/22 12:15:59;;;;;;;3.30;1.23;;;21.40;72.60;;;;;;5070999;28;20043;-76
2022/05/22 12:18:37;;;;;;;3.83;1.40;;;21.40;73.70;;;;;;5077508;28;20489;-75
2022/05/22 12:21:21;;;;;;;6.05;1.30;;;21.50;74.30;;;;;;5062411;28;20040;-75
2022/05/22 12:23:52;;;;;;;4.05;1.65;;;21.40;74.40;;;;;;5066528;28;20089;-76
2022/05/22 12:26:18;;;;;;;;;;;21.40;75.40;;;;;;5075315;28;20460;-75
2022/05/22 12:28:54;;;;;;;6.57;1.50;;;21.40;76.30;;;;;;5071255;28;19963;-75
2022/05/22 12:31:37;;;;;;;6.00;1.50;;;21.30;72.80;;;;;;5073295;28;20044;-76
2022/05/22 12:34:07;;;;;;;4.55;1.63;;;21.30;73.10;;;;;;5071803;28;20093;-76
2022/05/22 12:36:33;;;;;;;3.67;1.15;;;21.30;73.20;;;;;;5071108;28;20051;-75
2022/05/22 12:39:09;;;;;;;3.70;1.23;;;21.60;75.10;;;;;;5065607;28;20377;-75
2022/05/22 12:41:48;;;;;;;6.20;1.45;;;21.70;74.20;;;;;;5075537;28;20401;-75
2022/05/22 12:44:13;;;;;;;4.68;1.35;;;21.80;72.90;;;;;;5088516;28;20396;-75
2022/05/22 12:46:39;;;;;;;3.78;1.25;;;21.50;73.40;;;;;;5079649;28;20058;-75
2022/05/22 12:49:23;;;;;;;5.95;1.65;;;21.50;75.00;;;;;;5071304;28;20036;-75
2022/05/22 12:52:13;;;;;;;5.45;1.80;;;21.60;75.00;;;;;;5069057;28;20052;-75
2022/05/22 12:54:39;;;;;;;5.20;1.15;;;21.50;73.60;;;;;;5072553;28;20055;-75
2022/05/22 12:57:09;;;;;;;5.30;1.67;;;21.30;73.90;;;;;;5072175;28;20036;-75
2022/05/22 12:59:35;;;;;;;7.45;1.48;;;21.30;75.20;;;;;;5081945;28;20036;-75
2022/05/22 13:02:01;;;;;;;4.90;1.63;;;21.20;74.10;;;;;;5066508;28;20443;-76
2022/05/22 13:04:54;;;;;;;3.58;1.38;;;21.20;74.70;;;;;;5059864;28;20028;-75
2022/05/22 13:07:29;;;;;;;4.05;1.45;;;21.40;76.20;;;;;;5080149;28;20052;-76
2022/05/22 13:09:55;;;;;;;5.13;1.60;;;21.30;73.60;;;;;;5053811;28;20464;-75
2022/05/22 13:12:31;;;;;;;4.70;1.52;;;21.20;75.00;;;;;;5090459;28;20058;-76
2022/05/22 13:15:14;;;;;;;3.97;1.70;;;21.50;77.10;;;;;;5049713;28;20048;-75
2022/05/22 13:17:51;;;;;;;4.65;2.10;;;21.70;75.10;;;;;;5064927;28;20480;-75
2022/05/22 13:20:29;;;;;;;4.68;1.55;;;21.90;75.40;;;;;;5086944;28;20228;-76
2022/05/22 13:23:10;;;;;;;6.40;1.50;;;22.20;75.00;;;;;;5086439;28;20520;-76
2022/05/22 13:25:44;;;;;;;4.00;2.20;;;22.50;73.00;;;;;;5065443;28;20040;-76